sensor_id;sensor_type;location;lat;lon;timestamp;P1;durP1;ratioP1;P2;durP2;ratioP2
73938;SDS011;62291;47.554;8.504;2024-03-08T00:00:00;135.15;;;51.42;;
73938;SDS011;62291;47.554;8.504;2024-03-08T00:02:35;149.20;;;50.20;;
73938;SDS011;62291;47.554;8.504;2024-03-08T00:05:02;174.02;;;53.00;;
73938;SDS011;62291;47.554;8.504;2024-03-08T00:07:29;147.02;;;53.40;;
73938;SDS011;62291;47.554;8.504;2024-03-08T00:09:54;160.07;;;56.75;;
73938;SDS011;62291;47.554;8.504;2024-03-08T00:12:20;156.13;;;57.92;;
73938;SDS011;62291;47.554;8.504;2024-03-08T00:14:46;159.82;;;57.80;;
73938;SDS011;62291;47.554;8.504;2024-03-08T00:17:11;181.40;;;61.28;;
73938;SDS011;62291;47.554;8.504;2024-03-08T00:19:37;146.65;;;56.95;;
73938;SDS011;62291;47.554;8.504;2024-03-08T00:22:03;144.15;;;57.50;;
73938;SDS011;62291;47.554;8.504;2024-03-08T00:24:29;145.95;;;60.15;;
73938;SDS011;62291;47.554;8.504;2024-03-08T00:26:55;151.95;;;57.63;;
73938;SDS011;62291;47.554;8.504;2024-03-08T00:29:21;149.57;;;59.63;;
73938;SDS011;62291;47.554;8.504;2024-03-08T00:31:47;168.23;;;58.72;;
73938;SDS011;62291;47.554;8.504;2024-03-08T00:34:13;145.60;;;57.88;;
73938;SDS011;62291;47.554;8.504;2024-03-08T00:36:38;160.93;;;57.50;;
73938;SDS011;62291;47.554;8.504;2024-03-08T00:39:04;152.32;;;58.58;;
73938;SDS011;62291;47.554;8.504;2024-03-08T00:41:32;189.68;;;59.67;;
73938;SDS011;62291;47.554;8.504;2024-03-08T00:43:58;142.43;;;52.42;;
73938;SDS011;62291;47.554;8.504;2024-03-08T00:46:24;149.90;;;53.90;;
73938;SDS011;62291;47.554;8.504;2024-03-08T00:48:50;137.23;;;54.78;;
73938;SDS011;62291;47.554;8.504;2024-03-08T00:51:15;132.23;;;56.35;;
73938;SDS011;62291;47.554;8.504;2024-03-08T00:53:41;147.90;;;54.85;;
73938;SDS011;62291;47.554;8.504;2024-03-08T00:56:08;134.75;;;55.03;;
73938;SDS011;62291;47.554;8.504;2024-03-08T00:58:36;122.03;;;52.58;;
73938;SDS011;62291;47.554;8.504;2024-03-08T01:01:02;120.40;;;55.40;;
73938;SDS011;62291;47.554;8.504;2024-03-08T01:03:29;120.50;;;55.67;;
73938;SDS011;62291;47.554;8.504;2024-03-08T01:05:59;111.47;;;52.35;;
73938;SDS011;62291;47.554;8.504;2024-03-08T01:08:26;109.47;;;52.42;;
73938;SDS011;62291;47.554;8.504;2024-03-08T01:10:52;114.32;;;52.83;;
73938;SDS011;62291;47.554;8.504;2024-03-08T01:13:18;114.15;;;52.20;;
73938;SDS011;62291;47.554;8.504;2024-03-08T01:15:44;112.30;;;52.13;;
73938;SDS011;62291;47.554;8.504;2024-03-08T01:18:11;104.93;;;49.00;;
73938;SDS011;62291;47.554;8.504;2024-03-08T01:20:36;107.28;;;50.25;;
73938;SDS011;62291;47.554;8.504;2024-03-08T01:23:02;100.30;;;50.42;;
73938;SDS011;62291;47.554;8.504;2024-03-08T01:25:29;99.93;;;46.03;;
73938;SDS011;62291;47.554;8.504;2024-03-08T01:27:57;101.60;;;49.25;;
73938;SDS011;62291;47.554;8.504;2024-03-08T01:30:22;105.45;;;50.70;;
73938;SDS011;62291;47.554;8.504;2024-03-08T01:32:48;95.03;;;47.92;;
73938;SDS011;62291;47.554;8.504;2024-03-08T01:35:14;98.07;;;48.42;;
73938;SDS011;62291;47.554;8.504;2024-03-08T01:37:39;91.43;;;46.10;;
73938;SDS011;62291;47.554;8.504;2024-03-08T01:40:05;89.05;;;42.40;;
73938;SDS011;62291;47.554;8.504;2024-03-08T01:42:33;95.20;;;46.60;;
73938;SDS011;62291;47.554;8.504;2024-03-08T01:45:03;92.47;;;45.30;;
73938;SDS011;62291;47.554;8.504;2024-03-08T01:47:31;90.65;;;44.80;;
73938;SDS011;62291;47.554;8.504;2024-03-08T01:49:58;93.15;;;45.60;;
73938;SDS011;62291;47.554;8.504;2024-03-08T01:52:31;90.70;;;43.63;;
73938;SDS011;62291;47.554;8.504;2024-03-08T01:55:01;85.72;;;43.63;;
73938;SDS011;62291;47.554;8.504;2024-03-08T01:57:28;64.05;;;31.90;;
73938;SDS011;62291;47.554;8.504;2024-03-08T01:59:58;82.75;;;43.25;;
73938;SDS011;62291;47.554;8.504;2024-03-08T02:02:28;92.90;;;42.88;;
73938;SDS011;62291;47.554;8.504;2024-03-08T02:04:57;82.00;;;43.33;;
73938;SDS011;62291;47.554;8.504;2024-03-08T02:07:22;83.13;;;40.95;;
73938;SDS011;62291;47.554;8.504;2024-03-08T02:09:48;80.70;;;41.15;;
73938;SDS011;62291;47.554;8.504;2024-03-08T02:12:14;82.47;;;43.20;;
73938;SDS011;62291;47.554;8.504;2024-03-08T02:14:40;73.07;;;38.15;;
73938;SDS011;62291;47.554;8.504;2024-03-08T02:17:06;78.70;;;41.78;;
73938;SDS011;62291;47.554;8.504;2024-03-08T02:19:32;78.88;;;41.17;;
73938;SDS011;62291;47.554;8.504;2024-03-08T02:21:58;84.20;;;41.42;;
73938;SDS011;62291;47.554;8.504;2024-03-08T02:24:24;83.07;;;41.60;;
73938;SDS011;62291;47.554;8.504;2024-03-08T02:26:50;81.28;;;40.92;;
73938;SDS011;62291;47.554;8.504;2024-03-08T02:29:16;78.90;;;40.72;;
73938;SDS011;62291;47.554;8.504;2024-03-08T02:31:42;78.65;;;41.53;;
73938;SDS011;62291;47.554;8.504;2024-03-08T02:34:08;79.80;;;40.42;;
73938;SDS011;62291;47.554;8.504;2024-03-08T02:36:34;79.30;;;39.53;;
73938;SDS011;62291;47.554;8.504;2024-03-08T02:39:03;78.93;;;42.08;;
73938;SDS011;62291;47.554;8.504;2024-03-08T02:41:30;80.80;;;41.45;;
73938;SDS011;62291;47.554;8.504;2024-03-08T02:43:56;79.75;;;40.70;;
73938;SDS011;62291;47.554;8.504;2024-03-08T02:46:22;77.78;;;40.70;;
73938;SDS011;62291;47.554;8.504;2024-03-08T02:48:47;84.32;;;42.20;;
73938;SDS011;62291;47.554;8.504;2024-03-08T02:51:13;83.50;;;40.97;;
73938;SDS011;62291;47.554;8.504;2024-03-08T02:53:41;84.57;;;42.83;;
73938;SDS011;62291;47.554;8.504;2024-03-08T02:56:08;79.78;;;40.70;;
73938;SDS011;62291;47.554;8.504;2024-03-08T02:58:38;76.22;;;39.97;;
73938;SDS011;62291;47.554;8.504;2024-03-08T03:01:03;77.38;;;40.92;;
73938;SDS011;62291;47.554;8.504;2024-03-08T03:03:29;69.25;;;36.22;;
73938;SDS011;62291;47.554;8.504;2024-03-08T03:05:55;76.22;;;40.63;;
73938;SDS011;62291;47.554;8.504;2024-03-08T03:08:20;74.53;;;38.22;;
73938;SDS011;62291;47.554;8.504;2024-03-08T03:10:46;73.18;;;37.42;;
73938;SDS011;62291;47.554;8.504;2024-03-08T03:13:12;71.20;;;39.65;;
73938;SDS011;62291;47.554;8.504;2024-03-08T03:15:39;71.22;;;39.88;;
73938;SDS011;62291;47.554;8.504;2024-03-08T03:18:07;69.25;;;38.08;;
73938;SDS011;62291;47.554;8.504;2024-03-08T03:20:33;73.53;;;38.75;;
73938;SDS011;62291;47.554;8.504;2024-03-08T03:23:05;68.35;;;35.22;;
73938;SDS011;62291;47.554;8.504;2024-03-08T03:25:33;70.38;;;38.05;;
73938;SDS011;62291;47.554;8.504;2024-03-08T03:28:00;69.38;;;38.88;;
73938;SDS011;62291;47.554;8.504;2024-03-08T03:30:29;68.50;;;37.28;;
73938;SDS011;62291;47.554;8.504;2024-03-08T03:32:59;66.72;;;36.28;;
73938;SDS011;62291;47.554;8.504;2024-03-08T03:35:25;68.35;;;37.00;;
73938;SDS011;62291;47.554;8.504;2024-03-08T03:37:52;63.03;;;35.80;;
73938;SDS011;62291;47.554;8.504;2024-03-08T03:40:31;66.47;;;36.33;;
73938;SDS011;62291;47.554;8.504;2024-03-08T03:43:01;64.63;;;35.70;;
73938;SDS011;62291;47.554;8.504;2024-03-08T03:45:27;67.85;;;36.53;;
73938;SDS011;62291;47.554;8.504;2024-03-08T03:47:53;65.95;;;36.58;;
73938;SDS011;62291;47.554;8.504;2024-03-08T03:50:19;65.68;;;36.95;;
73938;SDS011;62291;47.554;8.504;2024-03-08T03:52:46;64.05;;;33.78;;
73938;SDS011;62291;47.554;8.504;2024-03-08T03:55:12;65.40;;;35.83;;
73938;SDS011;62291;47.554;8.504;2024-03-08T03:57:38;58.08;;;34.22;;
73938;SDS011;62291;47.554;8.504;2024-03-08T04:00:05;62.67;;;34.10;;
73938;SDS011;62291;47.554;8.504;2024-03-08T04:02:35;64.15;;;36.38;;
73938;SDS011;62291;47.554;8.504;2024-03-08T04:05:05;65.80;;;36.03;;
73938;SDS011;62291;47.554;8.504;2024-03-08T04:07:31;57.50;;;30.77;;
73938;SDS011;62291;47.554;8.504;2024-03-08T04:09:57;58.90;;;34.08;;
73938;SDS011;62291;47.554;8.504;2024-03-08T04:12:23;60.15;;;32.97;;
73938;SDS011;62291;47.554;8.504;2024-03-08T04:14:49;57.08;;;31.83;;
73938;SDS011;62291;47.554;8.504;2024-03-08T04:17:14;60.53;;;32.90;;
73938;SDS011;62291;47.554;8.504;2024-03-08T04:19:40;58.75;;;34.10;;
73938;SDS011;62291;47.554;8.504;2024-03-08T04:22:06;62.40;;;34.40;;
73938;SDS011;62291;47.554;8.504;2024-03-08T04:24:32;58.70;;;31.10;;
73938;SDS011;62291;47.554;8.504;2024-03-08T04:26:58;57.42;;;30.60;;
73938;SDS011;62291;47.554;8.504;2024-03-08T04:29:24;57.78;;;31.83;;
73938;SDS011;62291;47.554;8.504;2024-03-08T04:31:51;58.25;;;32.38;;
73938;SDS011;62291;47.554;8.504;2024-03-08T04:34:19;53.97;;;30.35;;
73938;SDS011;62291;47.554;8.504;2024-03-08T04:36:46;59.47;;;34.22;;
73938;SDS011;62291;47.554;8.504;2024-03-08T04:39:13;59.42;;;33.40;;
73938;SDS011;62291;47.554;8.504;2024-03-08T04:41:39;58.38;;;32.03;;
73938;SDS011;62291;47.554;8.504;2024-03-08T04:44:05;62.72;;;33.33;;
73938;SDS011;62291;47.554;8.504;2024-03-08T04:46:31;56.33;;;33.42;;
73938;SDS011;62291;47.554;8.504;2024-03-08T04:48:56;59.08;;;33.33;;
73938;SDS011;62291;47.554;8.504;2024-03-08T04:51:24;56.40;;;32.78;;
73938;SDS011;62291;47.554;8.504;2024-03-08T04:53:50;57.20;;;33.65;;
73938;SDS011;62291;47.554;8.504;2024-03-08T04:56:16;57.78;;;33.53;;
73938;SDS011;62291;47.554;8.504;2024-03-08T04:58:41;57.17;;;30.92;;
73938;SDS011;62291;47.554;8.504;2024-03-08T05:01:07;56.50;;;31.40;;
73938;SDS011;62291;47.554;8.504;2024-03-08T05:03:35;57.30;;;30.63;;
73938;SDS011;62291;47.554;8.504;2024-03-08T05:06:01;57.40;;;32.80;;
73938;SDS011;62291;47.554;8.504;2024-03-08T05:08:27;57.30;;;33.88;;
73938;SDS011;62291;47.554;8.504;2024-03-08T05:10:53;54.05;;;31.45;;
73938;SDS011;62291;47.554;8.504;2024-03-08T05:13:19;58.17;;;33.65;;
73938;SDS011;62291;47.554;8.504;2024-03-08T05:15:47;56.38;;;32.88;;
73938;SDS011;62291;47.554;8.504;2024-03-08T05:18:16;57.20;;;32.17;;
73938;SDS011;62291;47.554;8.504;2024-03-08T05:20:42;54.17;;;31.25;;
73938;SDS011;62291;47.554;8.504;2024-03-08T05:23:07;57.42;;;31.75;;
73938;SDS011;62291;47.554;8.504;2024-03-08T05:25:33;57.60;;;32.42;;
73938;SDS011;62291;47.554;8.504;2024-03-08T05:27:59;58.35;;;33.15;;
73938;SDS011;62291;47.554;8.504;2024-03-08T05:30:24;53.40;;;28.30;;
73938;SDS011;62291;47.554;8.504;2024-03-08T05:32:50;57.35;;;29.30;;
73938;SDS011;62291;47.554;8.504;2024-03-08T05:35:16;56.13;;;30.98;;
73938;SDS011;62291;47.554;8.504;2024-03-08T05:37:42;57.22;;;31.08;;
73938;SDS011;62291;47.554;8.504;2024-03-08T05:40:08;54.50;;;30.00;;
73938;SDS011;62291;47.554;8.504;2024-03-08T05:42:37;57.30;;;32.13;;
73938;SDS011;62291;47.554;8.504;2024-03-08T05:45:06;51.53;;;29.75;;
73938;SDS011;62291;47.554;8.504;2024-03-08T05:47:32;59.80;;;33.22;;
73938;SDS011;62291;47.554;8.504;2024-03-08T05:49:58;55.97;;;32.33;;
73938;SDS011;62291;47.554;8.504;2024-03-08T05:52:25;59.45;;;32.13;;
73938;SDS011;62291;47.554;8.504;2024-03-08T05:54:53;58.80;;;31.58;;
73938;SDS011;62291;47.554;8.504;2024-03-08T05:57:19;59.30;;;32.40;;
73938;SDS011;62291;47.554;8.504;2024-03-08T05:59:44;58.95;;;32.63;;
73938;SDS011;62291;47.554;8.504;2024-03-08T06:02:10;55.15;;;30.92;;
73938;SDS011;62291;47.554;8.504;2024-03-08T06:04:36;55.13;;;31.85;;
73938;SDS011;62291;47.554;8.504;2024-03-08T06:07:03;55.88;;;30.95;;
73938;SDS011;62291;47.554;8.504;2024-03-08T06:09:29;59.55;;;33.15;;
73938;SDS011;62291;47.554;8.504;2024-03-08T06:11:55;56.78;;;30.15;;
73938;SDS011;62291;47.554;8.504;2024-03-08T06:14:22;58.95;;;33.67;;
73938;SDS011;62291;47.554;8.504;2024-03-08T06:16:48;54.40;;;32.47;;
73938;SDS011;62291;47.554;8.504;2024-03-08T06:19:15;52.42;;;30.55;;
73938;SDS011;62291;47.554;8.504;2024-03-08T06:21:41;59.25;;;32.45;;
73938;SDS011;62291;47.554;8.504;2024-03-08T06:24:06;57.17;;;32.00;;
73938;SDS011;62291;47.554;8.504;2024-03-08T06:26:32;47.85;;;26.90;;
73938;SDS011;62291;47.554;8.504;2024-03-08T06:28:58;55.58;;;32.40;;
73938;SDS011;62291;47.554;8.504;2024-03-08T06:31:23;56.28;;;33.85;;
73938;SDS011;62291;47.554;8.504;2024-03-08T06:33:49;55.88;;;30.77;;
73938;SDS011;62291;47.554;8.504;2024-03-08T06:36:18;52.65;;;29.20;;
73938;SDS011;62291;47.554;8.504;2024-03-08T06:38:46;59.10;;;31.85;;
73938;SDS011;62291;47.554;8.504;2024-03-08T06:41:15;56.10;;;30.98;;
73938;SDS011;62291;47.554;8.504;2024-03-08T06:43:44;56.20;;;32.05;;
73938;SDS011;62291;47.554;8.504;2024-03-08T06:46:11;58.63;;;32.50;;
73938;SDS011;62291;47.554;8.504;2024-03-08T06:48:41;48.42;;;24.65;;
73938;SDS011;62291;47.554;8.504;2024-03-08T06:51:07;53.88;;;31.38;;
73938;SDS011;62291;47.554;8.504;2024-03-08T06:53:32;50.70;;;27.60;;
73938;SDS011;62291;47.554;8.504;2024-03-08T06:56:00;50.03;;;23.77;;
73938;SDS011;62291;47.554;8.504;2024-03-08T06:58:26;51.67;;;27.80;;
73938;SDS011;62291;47.554;8.504;2024-03-08T07:00:52;55.28;;;28.92;;
73938;SDS011;62291;47.554;8.504;2024-03-08T07:03:18;53.42;;;32.35;;
73938;SDS011;62291;47.554;8.504;2024-03-08T07:05:44;55.10;;;31.45;;
73938;SDS011;62291;47.554;8.504;2024-03-08T07:08:10;55.70;;;29.42;;
73938;SDS011;62291;47.554;8.504;2024-03-08T07:10:39;54.60;;;29.10;;
73938;SDS011;62291;47.554;8.504;2024-03-08T07:13:07;54.80;;;32.30;;
73938;SDS011;62291;47.554;8.504;2024-03-08T07:15:32;53.67;;;30.48;;
73938;SDS011;62291;47.554;8.504;2024-03-08T07:17:58;52.17;;;26.98;;
73938;SDS011;62291;47.554;8.504;2024-03-08T07:20:25;52.58;;;30.05;;
73938;SDS011;62291;47.554;8.504;2024-03-08T07:22:50;51.75;;;27.33;;
73938;SDS011;62291;47.554;8.504;2024-03-08T07:25:16;51.63;;;31.00;;
73938;SDS011;62291;47.554;8.504;2024-03-08T07:27:55;52.03;;;28.17;;
73938;SDS011;62291;47.554;8.504;2024-03-08T07:30:24;53.33;;;29.45;;
73938;SDS011;62291;47.554;8.504;2024-03-08T07:33:08;56.40;;;31.00;;
73938;SDS011;62291;47.554;8.504;2024-03-08T07:35:38;52.72;;;28.80;;
73938;SDS011;62291;47.554;8.504;2024-03-08T07:38:07;51.75;;;30.10;;
73938;SDS011;62291;47.554;8.504;2024-03-08T07:40:38;51.63;;;28.70;;
73938;SDS011;62291;47.554;8.504;2024-03-08T07:43:09;53.88;;;31.75;;
73938;SDS011;62291;47.554;8.504;2024-03-08T07:45:35;54.55;;;31.10;;
73938;SDS011;62291;47.554;8.504;2024-03-08T07:48:04;51.65;;;25.17;;
73938;SDS011;62291;47.554;8.504;2024-03-08T07:50:37;53.97;;;30.83;;
73938;SDS011;62291;47.554;8.504;2024-03-08T07:53:04;50.55;;;29.17;;
73938;SDS011;62291;47.554;8.504;2024-03-08T07:55:34;52.40;;;32.30;;
73938;SDS011;62291;47.554;8.504;2024-03-08T07:58:03;53.85;;;27.35;;
73938;SDS011;62291;47.554;8.504;2024-03-08T08:00:29;52.97;;;29.88;;
73938;SDS011;62291;47.554;8.504;2024-03-08T08:02:56;52.58;;;30.35;;
73938;SDS011;62291;47.554;8.504;2024-03-08T08:05:22;54.47;;;29.80;;
73938;SDS011;62291;47.554;8.504;2024-03-08T08:07:48;50.03;;;28.20;;
73938;SDS011;62291;47.554;8.504;2024-03-08T08:10:15;48.55;;;27.50;;
73938;SDS011;62291;47.554;8.504;2024-03-08T08:15:15;48.08;;;27.73;;
73938;SDS011;62291;47.554;8.504;2024-03-08T08:17:41;48.92;;;28.67;;
73938;SDS011;62291;47.554;8.504;2024-03-08T08:20:08;50.97;;;29.55;;
73938;SDS011;62291;47.554;8.504;2024-03-08T08:22:38;47.67;;;27.45;;
73938;SDS011;62291;47.554;8.504;2024-03-08T08:25:10;49.75;;;28.58;;
73938;SDS011;62291;47.554;8.504;2024-03-08T08:27:38;47.40;;;28.52;;
73938;SDS011;62291;47.554;8.504;2024-03-08T08:32:36;48.47;;;26.15;;
73938;SDS011;62291;47.554;8.504;2024-03-08T08:35:03;47.80;;;29.50;;
73938;SDS011;62291;47.554;8.504;2024-03-08T08:37:30;51.75;;;29.13;;
73938;SDS011;62291;47.554;8.504;2024-03-08T08:39:56;50.28;;;28.63;;
73938;SDS011;62291;47.554;8.504;2024-03-08T08:42:22;48.53;;;28.88;;
73938;SDS011;62291;47.554;8.504;2024-03-08T08:44:48;49.97;;;27.15;;
73938;SDS011;62291;47.554;8.504;2024-03-08T08:47:15;46.90;;;28.45;;
73938;SDS011;62291;47.554;8.504;2024-03-08T08:49:44;44.60;;;24.75;;
73938;SDS011;62291;47.554;8.504;2024-03-08T08:52:14;46.78;;;26.08;;
73938;SDS011;62291;47.554;8.504;2024-03-08T08:54:41;45.03;;;27.83;;
73938;SDS011;62291;47.554;8.504;2024-03-08T08:57:08;44.45;;;27.05;;
73938;SDS011;62291;47.554;8.504;2024-03-08T08:59:34;43.97;;;26.38;;
73938;SDS011;62291;47.554;8.504;2024-03-08T09:02:04;41.50;;;25.07;;
73938;SDS011;62291;47.554;8.504;2024-03-08T09:04:31;42.15;;;25.30;;
73938;SDS011;62291;47.554;8.504;2024-03-08T09:06:57;40.88;;;24.75;;
73938;SDS011;62291;47.554;8.504;2024-03-08T09:09:23;38.15;;;23.33;;
73938;SDS011;62291;47.554;8.504;2024-03-08T09:11:50;38.47;;;24.70;;
73938;SDS011;62291;47.554;8.504;2024-03-08T09:14:16;38.45;;;24.65;;
73938;SDS011;62291;47.554;8.504;2024-03-08T09:16:42;40.45;;;22.80;;
73938;SDS011;62291;47.554;8.504;2024-03-08T09:19:08;39.50;;;24.98;;
73938;SDS011;62291;47.554;8.504;2024-03-08T09:21:36;37.67;;;21.95;;
73938;SDS011;62291;47.554;8.504;2024-03-08T09:24:02;35.53;;;19.23;;
73938;SDS011;62291;47.554;8.504;2024-03-08T09:26:27;39.00;;;21.50;;
73938;SDS011;62291;47.554;8.504;2024-03-08T09:28:53;42.08;;;24.23;;
73938;SDS011;62291;47.554;8.504;2024-03-08T09:31:22;35.00;;;17.95;;
73938;SDS011;62291;47.554;8.504;2024-03-08T09:33:47;34.22;;;19.35;;
73938;SDS011;62291;47.554;8.504;2024-03-08T09:36:13;37.25;;;20.30;;
73938;SDS011;62291;47.554;8.504;2024-03-08T09:38:39;39.28;;;22.40;;
73938;SDS011;62291;47.554;8.504;2024-03-08T09:41:05;38.15;;;22.98;;
73938;SDS011;62291;47.554;8.504;2024-03-08T09:43:31;41.15;;;24.00;;
73938;SDS011;62291;47.554;8.504;2024-03-08T09:45:57;34.65;;;20.27;;
73938;SDS011;62291;47.554;8.504;2024-03-08T09:48:23;35.60;;;20.70;;
73938;SDS011;62291;47.554;8.504;2024-03-08T09:50:51;34.00;;;19.38;;
73938;SDS011;62291;47.554;8.504;2024-03-08T09:53:16;38.20;;;22.88;;
73938;SDS011;62291;47.554;8.504;2024-03-08T09:55:43;35.92;;;19.77;;
73938;SDS011;62291;47.554;8.504;2024-03-08T09:58:14;37.70;;;22.23;;
73938;SDS011;62291;47.554;8.504;2024-03-08T10:00:41;36.33;;;22.92;;
73938;SDS011;62291;47.554;8.504;2024-03-08T10:03:07;38.20;;;22.33;;
73938;SDS011;62291;47.554;8.504;2024-03-08T10:05:33;35.53;;;20.52;;
73938;SDS011;62291;47.554;8.504;2024-03-08T10:07:59;34.40;;;17.83;;
73938;SDS011;62291;47.554;8.504;2024-03-08T10:10:25;37.20;;;22.55;;
73938;SDS011;62291;47.554;8.504;2024-03-08T10:12:51;39.30;;;22.63;;
73938;SDS011;62291;47.554;8.504;2024-03-08T10:15:17;39.00;;;24.20;;
73938;SDS011;62291;47.554;8.504;2024-03-08T10:17:43;38.67;;;24.33;;
73938;SDS011;62291;47.554;8.504;2024-03-08T10:20:13;40.45;;;24.13;;
73938;SDS011;62291;47.554;8.504;2024-03-08T10:22:42;37.78;;;22.27;;
73938;SDS011;62291;47.554;8.504;2024-03-08T10:25:12;36.72;;;24.27;;
73938;SDS011;62291;47.554;8.504;2024-03-08T10:27:41;39.25;;;22.80;;
73938;SDS011;62291;47.554;8.504;2024-03-08T10:30:14;36.70;;;24.23;;
73938;SDS011;62291;47.554;8.504;2024-03-08T10:32:44;37.70;;;21.40;;
73938;SDS011;62291;47.554;8.504;2024-03-08T10:35:10;38.42;;;23.13;;
73938;SDS011;62291;47.554;8.504;2024-03-08T10:37:44;40.63;;;24.67;;
73938;SDS011;62291;47.554;8.504;2024-03-08T10:40:16;38.33;;;22.38;;
73938;SDS011;62291;47.554;8.504;2024-03-08T10:42:53;38.03;;;22.92;;
73938;SDS011;62291;47.554;8.504;2024-03-08T10:48:03;37.72;;;23.92;;
73938;SDS011;62291;47.554;8.504;2024-03-08T10:50:40;35.28;;;23.27;;
73938;SDS011;62291;47.554;8.504;2024-03-08T10:53:10;39.78;;;22.52;;
73938;SDS011;62291;47.554;8.504;2024-03-08T10:55:39;40.08;;;24.75;;
73938;SDS011;62291;47.554;8.504;2024-03-08T10:58:08;36.97;;;24.67;;
73938;SDS011;62291;47.554;8.504;2024-03-08T11:00:34;35.58;;;21.75;;
73938;SDS011;62291;47.554;8.504;2024-03-08T11:03:02;36.17;;;21.83;;
73938;SDS011;62291;47.554;8.504;2024-03-08T11:10:47;34.17;;;21.00;;
73938;SDS011;62291;47.554;8.504;2024-03-08T11:16:02;32.38;;;18.02;;
73938;SDS011;62291;47.554;8.504;2024-03-08T11:18:33;34.75;;;21.98;;
73938;SDS011;62291;47.554;8.504;2024-03-08T11:21:04;33.67;;;21.42;;
73938;SDS011;62291;47.554;8.504;2024-03-08T11:23:37;33.80;;;22.45;;
73938;SDS011;62291;47.554;8.504;2024-03-08T11:26:17;32.35;;;18.40;;
73938;SDS011;62291;47.554;8.504;2024-03-08T11:28:48;33.30;;;21.02;;
73938;SDS011;62291;47.554;8.504;2024-03-08T11:31:23;34.60;;;22.05;;
73938;SDS011;62291;47.554;8.504;2024-03-08T11:33:50;29.80;;;15.60;;
73938;SDS011;62291;47.554;8.504;2024-03-08T11:36:21;38.78;;;22.17;;
73938;SDS011;62291;47.554;8.504;2024-03-08T11:38:49;35.17;;;21.10;;
73938;SDS011;62291;47.554;8.504;2024-03-08T11:41:26;33.25;;;21.88;;
73938;SDS011;62291;47.554;8.504;2024-03-08T11:44:02;28.90;;;16.50;;
73938;SDS011;62291;47.554;8.504;2024-03-08T11:46:33;35.00;;;21.60;;
73938;SDS011;62291;47.554;8.504;2024-03-08T11:48:59;33.00;;;22.42;;
73938;SDS011;62291;47.554;8.504;2024-03-08T11:51:26;33.50;;;22.05;;
73938;SDS011;62291;47.554;8.504;2024-03-08T11:53:52;34.58;;;21.63;;
73938;SDS011;62291;47.554;8.504;2024-03-08T11:56:18;31.52;;;20.55;;
73938;SDS011;62291;47.554;8.504;2024-03-08T11:58:56;35.13;;;20.75;;
73938;SDS011;62291;47.554;8.504;2024-03-08T12:01:25;28.65;;;14.77;;
73938;SDS011;62291;47.554;8.504;2024-03-08T12:03:55;32.42;;;19.95;;
73938;SDS011;62291;47.554;8.504;2024-03-08T12:06:24;34.03;;;20.70;;
73938;SDS011;62291;47.554;8.504;2024-03-08T12:08:50;34.00;;;20.92;;
73938;SDS011;62291;47.554;8.504;2024-03-08T12:11:19;31.90;;;21.50;;
73938;SDS011;62291;47.554;8.504;2024-03-08T12:13:48;34.50;;;19.52;;
73938;SDS011;62291;47.554;8.504;2024-03-08T12:16:17;33.25;;;21.35;;
73938;SDS011;62291;47.554;8.504;2024-03-08T12:18:43;33.33;;;21.15;;
73938;SDS011;62291;47.554;8.504;2024-03-08T12:21:10;33.55;;;20.13;;
73938;SDS011;62291;47.554;8.504;2024-03-08T12:23:37;31.85;;;21.38;;
73938;SDS011;62291;47.554;8.504;2024-03-08T12:26:17;31.75;;;19.63;;
73938;SDS011;62291;47.554;8.504;2024-03-08T12:28:48;32.88;;;21.92;;
73938;SDS011;62291;47.554;8.504;2024-03-08T12:31:16;31.02;;;19.95;;
73938;SDS011;62291;47.554;8.504;2024-03-08T12:33:49;31.30;;;20.30;;
73938;SDS011;62291;47.554;8.504;2024-03-08T12:36:16;28.38;;;17.38;;
73938;SDS011;62291;47.554;8.504;2024-03-08T12:38:49;28.13;;;16.38;;
73938;SDS011;62291;47.554;8.504;2024-03-08T12:41:18;29.77;;;18.60;;
73938;SDS011;62291;47.554;8.504;2024-03-08T12:43:45;29.52;;;18.17;;
73938;SDS011;62291;47.554;8.504;2024-03-08T12:46:16;29.75;;;16.20;;
73938;SDS011;62291;47.554;8.504;2024-03-08T12:48:43;29.83;;;17.65;;
73938;SDS011;62291;47.554;8.504;2024-03-08T12:51:12;31.10;;;16.15;;
73938;SDS011;62291;47.554;8.504;2024-03-08T12:53:38;36.13;;;21.48;;
73938;SDS011;62291;47.554;8.504;2024-03-08T12:56:06;28.48;;;19.73;;
73938;SDS011;62291;47.554;8.504;2024-03-08T12:58:35;31.58;;;17.58;;
73938;SDS011;62291;47.554;8.504;2024-03-08T13:01:02;30.77;;;16.35;;
73938;SDS011;62291;47.554;8.504;2024-03-08T13:03:30;32.17;;;19.77;;
73938;SDS011;62291;47.554;8.504;2024-03-08T13:05:56;30.52;;;18.42;;
73938;SDS011;62291;47.554;8.504;2024-03-08T13:08:22;33.47;;;19.95;;
73938;SDS011;62291;47.554;8.504;2024-03-08T13:10:50;30.63;;;17.60;;
73938;SDS011;62291;47.554;8.504;2024-03-08T13:13:16;27.65;;;16.75;;
73938;SDS011;62291;47.554;8.504;2024-03-08T13:15:42;29.30;;;18.48;;
73938;SDS011;62291;47.554;8.504;2024-03-08T13:18:08;27.65;;;18.63;;
73938;SDS011;62291;47.554;8.504;2024-03-08T13:20:34;30.35;;;19.25;;
73938;SDS011;62291;47.554;8.504;2024-03-08T13:23:05;29.42;;;16.52;;
73938;SDS011;62291;47.554;8.504;2024-03-08T13:25:33;30.42;;;20.13;;
73938;SDS011;62291;47.554;8.504;2024-03-08T13:27:59;31.17;;;18.48;;
73938;SDS011;62291;47.554;8.504;2024-03-08T13:30:25;26.98;;;16.02;;
73938;SDS011;62291;47.554;8.504;2024-03-08T13:32:52;28.48;;;16.23;;
73938;SDS011;62291;47.554;8.504;2024-03-08T13:35:19;28.17;;;16.77;;
73938;SDS011;62291;47.554;8.504;2024-03-08T13:37:49;28.42;;;17.95;;
73938;SDS011;62291;47.554;8.504;2024-03-08T13:40:16;27.48;;;15.38;;
73938;SDS011;62291;47.554;8.504;2024-03-08T13:42:48;25.85;;;16.92;;
73938;SDS011;62291;47.554;8.504;2024-03-08T13:45:14;26.92;;;17.63;;
73938;SDS011;62291;47.554;8.504;2024-03-08T13:47:47;25.40;;;13.77;;
73938;SDS011;62291;47.554;8.504;2024-03-08T13:50:14;27.30;;;18.10;;
73938;SDS011;62291;47.554;8.504;2024-03-08T13:52:46;27.15;;;17.38;;
73938;SDS011;62291;47.554;8.504;2024-03-08T13:55:14;27.17;;;17.40;;
73938;SDS011;62291;47.554;8.504;2024-03-08T13:57:39;25.98;;;17.30;;
73938;SDS011;62291;47.554;8.504;2024-03-08T14:00:05;26.58;;;16.58;;
73938;SDS011;62291;47.554;8.504;2024-03-08T14:02:32;25.50;;;15.35;;
73938;SDS011;62291;47.554;8.504;2024-03-08T14:04:58;25.20;;;15.70;;
73938;SDS011;62291;47.554;8.504;2024-03-08T14:07:26;26.67;;;18.17;;
73938;SDS011;62291;47.554;8.504;2024-03-08T14:09:54;27.80;;;15.65;;
73938;SDS011;62291;47.554;8.504;2024-03-08T14:12:19;28.27;;;16.98;;
73938;SDS011;62291;47.554;8.504;2024-03-08T14:14:45;26.75;;;16.67;;
73938;SDS011;62291;47.554;8.504;2024-03-08T14:17:11;25.42;;;16.02;;
73938;SDS011;62291;47.554;8.504;2024-03-08T14:19:42;24.80;;;16.05;;
73938;SDS011;62291;47.554;8.504;2024-03-08T14:22:07;25.83;;;17.50;;
73938;SDS011;62291;47.554;8.504;2024-03-08T14:24:35;24.83;;;16.55;;
73938;SDS011;62291;47.554;8.504;2024-03-08T14:27:02;25.38;;;14.75;;
73938;SDS011;62291;47.554;8.504;2024-03-08T14:29:28;26.98;;;16.55;;
73938;SDS011;62291;47.554;8.504;2024-03-08T14:31:57;24.77;;;15.45;;
73938;SDS011;62291;47.554;8.504;2024-03-08T14:34:24;23.85;;;12.13;;
73938;SDS011;62291;47.554;8.504;2024-03-08T14:36:55;23.50;;;15.68;;